Hovedside
METAR-TAF:

METAR-TAF

Lufthavner :

Norne Fpso, Norge

Oljeplattform

breddegrad: 66-01-48N, lengdegrad: 008-04-48E, høyde over havet: 10 m

Gjeldene værobservasjon

Denne rapporten ble laget for 24 minutter siden, klokken 20:20 UTC
Temperatur 6°C
Luftfuktighet 65%
Trykk 1016 hPa
Sikt 10 km eller mer

METAR: ENNE 262020Z AUTO /////KT 9999NDV FEW026/// SCT034/// OVC053/// 06/00 Q1016 W///S7

Tid: 22:44 (20:44 UTC)

Varsel

Denne rapporten ble laget for 9 timer og 44 minutter siden, klokken 11:00 UTC
Varsel gyldig fra 26. klokken 12 UTC til 26. klokken 17 UTC
Vind 35 kt fra Vest-nordvest
Sikt 10 km eller mer
Spredte skyer i en høyde av 1500 ft
Blir
fra 26. klokken 14 UTC til 26. klokken 16 UTC
Vind 25 kt fra Vest-nordvest

TAF: ENNE 261100Z 2612/2617 30035KT 9999 SCT015 BECMG 2614/2616 30025KT

Værobservasjoner og værvarsel for over 4000 flyplasser (METAR- og TAF-rapporter).

Tilgjengelige stasjoner er representert av de røde og gule prikkene på kartet.

Hold musepekeren over prikken for å se navnet på stasjonen.

Klikk så for å se værobservasjoner og -varsler.

For å forandre kartet kan du klikke på den grønne knappen med svart kryss for å zoome inn, på den grønne knappen med strek for å zoome ut, eller på de grønne pilene for å se tilstøtende kart.


METAR-TAF: